createdAt,value
2022-11-08T06:25:30.324Z,100206.50
2022-11-08T06:27:31.810Z,100214.59
2022-11-08T06:29:33.333Z,100220.16
2022-11-08T06:31:37.333Z,100214.78
2022-11-08T06:33:42.055Z,100225.56
2022-11-08T06:35:43.669Z,100232.31
2022-11-08T06:37:45.209Z,100237.38
2022-11-08T06:39:46.685Z,100242.13
2022-11-08T06:41:49.798Z,100248.41
2022-11-08T06:43:51.325Z,100249.25
2022-11-08T06:45:52.855Z,100249.19
2022-11-08T06:47:57.366Z,100244.53
2022-11-08T06:49:58.888Z,100251.25
2022-11-08T06:52:00.493Z,100251.69
2022-11-08T06:54:02.040Z,100255.47
2022-11-08T06:56:03.918Z,100260.00
2022-11-08T06:58:06.977Z,100258.56
2022-11-08T07:00:09.816Z,100264.22
2022-11-08T07:02:11.749Z,100254.47
2022-11-08T07:04:13.349Z,100255.75
2022-11-08T07:06:14.891Z,100251.41
2022-11-08T07:08:22.360Z,100254.84
2022-11-08T07:10:28.060Z,100256.66
2022-11-08T07:12:31.921Z,100245.63
2022-11-08T07:14:35.466Z,100260.44
2022-11-08T07:16:36.957Z,100263.97
2022-11-08T07:18:38.612Z,100262.63
2022-11-08T07:20:41.636Z,100262.00
2022-11-08T07:22:43.162Z,100258.22
2022-11-08T07:24:44.625Z,100254.38
2022-11-08T07:26:46.466Z,100256.59
2022-11-08T07:28:48.013Z,100247.16
2022-11-08T07:30:50.952Z,100246.06
2022-11-08T07:32:53.348Z,100250.16
2022-11-08T07:34:54.980Z,100249.06
2022-11-08T07:36:56.577Z,100249.38
2022-11-08T07:39:00.194Z,100244.41
2022-11-08T07:41:06.113Z,100252.72
2022-11-08T07:43:23.735Z,100250.16
2022-11-08T07:45:25.896Z,100254.38
2022-11-08T07:47:29.107Z,100249.22
2022-11-08T07:49:30.950Z,100249.22
2022-11-08T07:51:32.650Z,100243.13
2022-11-08T07:53:34.193Z,100244.66
2022-11-08T07:55:36.495Z,100243.00
2022-11-08T07:57:38.183Z,100237.41
2022-11-08T07:59:39.853Z,100248.66
2022-11-08T08:01:41.464Z,100245.94
2022-11-08T08:03:44.644Z,100240.34
2022-11-08T08:05:52.951Z,100234.34
2022-11-08T08:07:58.112Z,100236.22
2022-11-08T08:10:00.190Z,100231.75
2022-11-08T08:12:01.786Z,100244.19
2022-11-08T08:14:03.531Z,100232.69
2022-11-08T08:16:05.636Z,100239.31
2022-11-08T08:18:08.577Z,100244.59
2022-11-08T08:20:13.519Z,100253.22
2022-11-08T08:22:15.418Z,100254.53
2022-11-08T08:24:17.556Z,100260.63
2022-11-08T08:26:19.624Z,100266.81
2022-11-08T08:28:21.454Z,100272.34
2022-11-08T08:30:24.652Z,100276.34
2022-11-08T08:32:31.296Z,100284.44
2022-11-08T08:34:33.685Z,100280.06
2022-11-08T08:36:37.136Z,100278.66
2022-11-08T08:38:44.174Z,100282.97
2022-11-08T08:40:46.473Z,100277.97
2022-11-08T08:42:48.317Z,100278.19
2022-11-08T08:44:50.002Z,100279.69
2022-11-08T08:46:51.623Z,100284.00
2022-11-08T08:48:53.259Z,100277.88
2022-11-08T08:50:55.147Z,100278.91
2022-11-08T08:52:59.572Z,100286.31
2022-11-08T08:55:01.130Z,100284.03
2022-11-08T08:57:02.779Z,100288.44
2022-11-08T09:01:41.259Z,100287.13
2022-11-08T09:03:43.057Z,100278.59
2022-11-08T09:05:44.837Z,100287.94
2022-11-08T09:07:46.395Z,100297.44
2022-11-08T09:09:49.248Z,100307.06
2022-11-08T09:11:50.800Z,100294.31
2022-11-08T09:13:52.354Z,100305.34
2022-11-08T09:15:54.079Z,100302.31
2022-11-08T09:17:56.106Z,100294.19
2022-11-08T09:19:57.740Z,100293.72
2022-11-08T09:21:59.350Z,100294.00
2022-11-08T09:24:00.967Z,100291.91
2022-11-08T09:26:05.239Z,100291.03
2022-11-08T09:28:07.492Z,100307.16
2022-11-08T09:30:10.281Z,100308.16
2022-11-08T09:32:11.901Z,100303.97
2022-11-08T09:34:15.145Z,100299.63
2022-11-08T09:36:19.300Z,100300.84
2022-11-08T09:38:20.962Z,100298.13
2022-11-08T09:40:30.201Z,100295.75
2022-11-08T09:42:45.317Z,100297.34
2022-11-08T09:45:03.052Z,100293.25
2022-11-08T09:47:14.380Z,100297.44
2022-11-08T09:49:21.190Z,100285.34
2022-11-08T09:51:24.264Z,100283.00
2022-11-08T09:53:32.332Z,100286.53
2022-11-08T09:55:39.733Z,100283.16
2022-11-08T09:57:52.615Z,100289.06
2022-11-08T10:00:00.944Z,100291.28
2022-11-08T10:02:03.177Z,100287.56
2022-11-08T10:04:08.907Z,100290.13
2022-11-08T10:06:46.175Z,100290.41
2022-11-08T10:08:55.437Z,100295.00
2022-11-08T10:11:20.214Z,100281.41
2022-11-08T10:13:33.854Z,100277.41
2022-11-08T10:15:41.321Z,100283.81
2022-11-08T10:18:27.029Z,100283.22
2022-11-08T10:20:40.088Z,100289.75
2022-11-08T10:22:51.681Z,100281.94
2022-11-08T10:25:00.436Z,100274.78
2022-11-08T10:27:03.760Z,100273.97
2022-11-08T10:29:14.137Z,100276.22
2022-11-08T10:31:17.854Z,100273.53
2022-11-08T10:33:22.811Z,100278.53
2022-11-08T10:35:31.127Z,100273.72
2022-11-08T10:37:34.080Z,100278.97
2022-11-08T10:39:42.725Z,100273.06
2022-11-08T10:41:49.911Z,100274.78
2022-11-08T10:43:57.977Z,100276.53
2022-11-08T10:46:00.964Z,100272.22
2022-11-08T10:48:03.148Z,100282.31
2022-11-08T10:50:13.812Z,100266.50
2022-11-08T10:52:18.441Z,100266.69
2022-11-08T10:54:49.377Z,100269.06
2022-11-08T10:56:54.985Z,100263.78
2022-11-08T10:58:56.553Z,100260.09
2022-11-08T11:01:05.925Z,100265.38
2022-11-08T11:03:23.476Z,100262.66
2022-11-08T11:05:31.300Z,100266.16
2022-11-08T11:07:34.744Z,100256.69
2022-11-08T11:09:36.284Z,100251.41
2022-11-08T11:11:38.297Z,100257.44
2022-11-08T11:13:39.843Z,100257.41
2022-11-08T11:15:46.299Z,100268.63
2022-11-08T11:17:49.222Z,100253.59
2022-11-08T11:19:54.854Z,100252.28
2022-11-08T11:22:01.488Z,100248.41
2022-11-08T11:24:08.990Z,100251.28
2022-11-08T11:26:20.224Z,100241.38
2022-11-08T11:28:21.814Z,100248.38
2022-11-08T11:30:29.340Z,100238.28
2022-11-08T11:32:34.270Z,100246.28
2022-11-08T11:34:50.692Z,100230.59
2022-11-08T11:36:57.137Z,100238.13
2022-11-08T11:39:02.768Z,100224.97
2022-11-08T11:41:12.938Z,100224.28
2022-11-08T11:43:24.152Z,100225.28
2022-11-08T11:45:30.797Z,100222.97
2022-11-08T11:47:37.441Z,100210.34
2022-11-08T11:49:42.911Z,100216.13
2022-11-08T11:51:45.927Z,100217.25
2022-11-08T11:53:48.924Z,100218.06
2022-11-08T11:56:25.941Z,100222.34
2022-11-08T11:58:45.494Z,100222.03
2022-11-08T12:00:56.010Z,100216.19
2022-11-08T12:03:36.099Z,100213.44
2022-11-08T12:05:56.191Z,100211.19
2022-11-08T12:08:12.128Z,100213.91
2022-11-08T12:10:23.654Z,100212.97
2022-11-08T12:12:41.565Z,100207.56
2022-11-08T12:14:57.479Z,100203.72
2022-11-08T12:17:10.160Z,100201.00
2022-11-08T12:19:29.077Z,100201.00
2022-11-08T12:21:38.161Z,100206.78
2022-11-08T12:23:56.465Z,100195.22
2022-11-08T12:26:09.394Z,100196.19
2022-11-08T12:28:28.307Z,100193.78
2022-11-08T12:30:37.342Z,100196.19
2022-11-08T12:32:54.112Z,100187.53
2022-11-08T12:35:19.040Z,100183.22
2022-11-08T12:37:30.766Z,100177.47
2022-11-08T12:39:42.304Z,100180.81
2022-11-08T12:41:53.648Z,100178.25
2022-11-08T12:44:15.481Z,100169.44
2022-11-08T12:46:18.914Z,100172.63
2022-11-08T12:48:32.525Z,100170.84
2022-11-08T12:50:44.252Z,100157.22
2022-11-08T12:53:02.290Z,100160.78
2022-11-08T12:55:11.340Z,100161.22
2022-11-08T12:57:15.869Z,100170.19
2022-11-08T12:59:22.701Z,100166.34
2022-11-08T13:01:24.328Z,100161.53
2022-11-08T13:03:52.225Z,100157.84
